AirNav   Pilot Hours Calculator
 
 1580 users online  

KPYP Centre-Piedmont-Cherokee County Regional Airport
Centre, Alabama, USA

GOING TO CENTRE?


FAA INFORMATION EFFECTIVE 09 SEPTEMBER 2021

Location

FAA Identifier: PYP
Lat/Long: 34-05-23.7000N 085-36-36.3000W
34-05.395000N 085-36.605000W
34.0899167,-85.6100833
(estimated)
Elevation: 594.6 ft. / 181 m (estimated)
Variation: 04W (2010)
From city: 5 miles S of CENTRE, AL
Time zone: UTC -5 (UTC -6 during Standard Time)
Zip code: 35960

Airport Operations

Airport use: Open to the public
Activation date: 09/2007
Control tower: no
ARTCC: ATLANTA CENTER
FSS: ANNISTON FLIGHT SERVICE STATION
NOTAMs facility: ANB (NOTAM-D service available)
Attendance: UNATNDD
Wind indicator: lighted
Segmented circle: yes
Lights: ACTVT MIRL RWY 07/25 - CTAF.
Beacon: white-green (lighted land airport)
Operates sunset to sunrise.

Airport Communications

CTAF: 122.9
  • APCH/DEP SVC PRVDD BY ATLANTA ARTCC ON FREQS 124.5/270.325 (GADSDEN RCAG).

Nearby radio navigation aids

VOR radial/distance  VOR name  Freq  Var
GADr072/24.5GADSDEN VOR/DME112.3002E
RMGr259/24.8ROME VORTAC115.4001E

 
NDB name  Hdg/Dist  Freq  Var  ID
CARROLLTON327/39.527804WGPQ --. .--. --.-

Airport Services

Fuel available: 100LL
Parking: tiedowns

Runway Information

Runway 7/25

Dimensions: 5500 x 100 ft. / 1676 x 30 m
Surface: asphalt/aggregate friction seal coat, in good condition
Runway edge lights: medium intensity
RUNWAY 7  RUNWAY 25
Latitude: 34-05.189240N34-05.601052N
Longitude: 085-37.089855W085-36.118890W
Elevation: 584.4 ft.594.6 ft.
Traffic pattern: leftleft
Runway heading: 067 magnetic, 063 true247 magnetic, 243 true
Markings: nonprecision, in good conditionnonprecision, in good condition
Touchdown point: yes, no lightsyes, no lights
Obstructions: 65 ft. trees, 2929 ft. from runway, 261 ft. left of centerline, 41:1 slope to clearnone

Airport Ownership and Management from official FAA records

Ownership: Publicly-owned
Owner: CPCCR AIRPORT AUTHORITY
P.O. BOX 466
CENTRE, AL 35960
Phone (256) 927-8008
Manager: DONNIE FREE
P.O. 466
CENTRE, AL 35960
Phone (256) 557-0404

Airport Operational Statistics

Aircraft based on the field: 20
Single engine airplanes: 19
Multi engine airplanes: 1
    
Aircraft operations: avg 44/day *
51% transient general aviation
49% local general aviation
* for 12-month period ending 31 March 2019

Additional Remarks

FOR CD CTC ATLANTA ARTCC AT 770-210-7692.

Instrument Procedures

NOTE: All procedures below are presented as PDF files. If you need a reader for these files, you should download the free Adobe Reader.

NOT FOR NAVIGATION. Please procure official charts for flight.
FAA instrument procedures published for use from 09 September 2021 at 0901Z to 07 October 2021 at 0900Z.

 
IAPs - Instrument Approach Procedures
RNAV (GPS) RWY 07   download (239KB)
RNAV (GPS) RWY 25   download (215KB)
NOTE: Special Take-Off Minimums/Departure Procedures apply   download (189KB)

Other nearby airports with instrument procedures:

4A4 - Polk County Airport/Cornelius Moore Field (24 nm E)
4A9 - Isbell Field Airport (24 nm N)
KGAD - Northeast Alabama Regional Airport (25 nm W)
KRMG - Richard B. Russell Regional Airport - J.H. Towers Field (27 nm NE)
KANB - Anniston Regional Airport (33 nm S)
 
Loc | Ops | Rwys | IFR | FBO | Links
Com | Nav | Svcs | Stats | Notes
Area around KPYP (Centre-Piedmont-Cherokee County Regional Airport)
 
Road maps at: MapQuest Bing Google
 
Aerial photo
WARNING: Photo may not be current or correct
Aerial photo of KPYP (Centre-Piedmont-Cherokee County Regional Airport)
Photo by Harley McGatha
Photo taken 10-Nov-2007
from a PA24-260B Comanche

Do you have a better or more recent aerial photo of Centre-Piedmont-Cherokee County Regional Airport that you would like to share? If so, please send us your photo.

 
Sectional chart

 
Airport distance calculator
Flying to Centre-Piedmont-Cherokee County Regional Airport? Find the distance to fly.

From to KPYP

Sunrise and sunset
Times for 20-Sep-2021
 Local
(UTC-5)
 Zulu
(UTC)
Morning civil twilight06:0511:05
Sunrise06:3011:30
Sunset18:4223:42
Evening civil twilight19:0700:07

Current date and time
Zulu (UTC)  20-Sep-2021 18:01:22
Local (UTC-5)  20-Sep-2021 13:01:22
 
METAR
K4A9 
24nm N 
201755Z AUTO 00000KT 1 3/4SM +VCTSRA BR OVC014 23/22 A3005 RMK AO2 LTG DSNT SW P0004 T02310217 10246 20217 60107
KGAD 
24nm W 
201756Z AUTO 00000KT 10SM -TSRA 24/24 A3004 RMK AO2 TSB43 SLP170 P0048 60049 T02390239 10272 20222 56007 $
KRMG 
27nm NE 
201753Z AUTO 10008KT 3SM -RA BR BKN007 BKN011 OVC017 23/21 A3006 RMK AO2 CIG 005V009 SLP171 P0018 60172 T02330211 10233 20228 56003
KANB 
33nm S 
201753Z AUTO 15003KT 6SM -RA BR FEW014 BKN019 OVC039 26/23 A3003 RMK AO2 LTG DSNT NW RAE04B45 SLP160 P0000 60005 T02560233 10261 20233 56006
K8A0 
33nm W 
201730Z AUTO 15004KT 10SM SCT007 SCT018 BKN049 25/22 A3005 RMK AO2
KPUJ 
35nm E 
201755Z AUTO 14008KT 7SM RA OVC005 22/22 A3008 RMK AO2 LTG DSNT W
KCTJ 
36nm SE 
201735Z AUTO 13005KT 7SM -RA SCT011 SCT016 OVC025 23/22 A3010 RMK AO2 T02310216
KVPC 
38nm E 
201755Z AUTO 10009G16KT 1 1/2SM -RA BR SCT009 BKN013 OVC032 22/21 A3009 RMK AO2 P0011
KASN 
38nm SW 
201755Z AUTO 15007KT 10SM TS SCT019 BKN028 OVC036 26/24 A3003 RMK AO2 LTG DSNT N AND S 60002 T02640236 10264 20222
K9A5 
39nm NE 
201735Z AUTO 02003KT 1 1/4SM SCT006 BKN011 OVC024 20/20 A3010 RMK AO2 T02020202
TAF
KANB 
33nm S 
201738Z 2018/2118 11005KT 6SM SHRA SCT035 OVC050 FM210300 10005KT P6SM BKN006 PROB30 2103/2106 4SM -SHRA BR OVC002 FM211500 00000KT P6SM BKN011 PROB30 2115/2118 4SM SHRA BR OVC025
KASN 
38nm SW 
201738Z 2018/2118 11005KT 6SM SHRA SCT025 OVC050 FM210000 VRB03KT P6SM VCSH BKN020 FM210300 VRB04KT P6SM BKN009 PROB30 2103/2106 4SM -SHRA BR OVC004 FM211000 00000KT P6SM BKN007 FM211500 00000KT P6SM SCT022 PROB30 2116/2118 4SM SHRA BR BKN025
NOTAMs
Click for the latest NOTAMs
NOTAMs are issued by the DoD/FAA and will open in a separate window not controlled by AirNav.

 

 
 

FBO, Fuel Providers, and Aircraft Ground Support

  
 Business Name 
 
 Contact 
 
 Services / Description 
 
Fuel Prices
 
Comments
  
Centre-Piedmont-Cherokee County Regional Airport 256-927-8009
[email]
Airport management, Aviation fuel, Aircraft parking (ramp or tiedown), Hangar leasing / sales, Passenger terminal and lounge, Aircraft maintenance, ...

More info about Centre-Piedmont-Cherokee County Regional Airport
Phillips 66
100LL
SS $4.59 
 Updated 09-Jul-2021
 
   write
SS=Self service
Update Fuel Prices
 

Would you like to see your business listed on this page?

 If your business provides an interesting product or service to pilots, flight crews, aircraft, or users of the Centre-Piedmont-Cherokee County Regional Airport, you should consider listing it here.  To start the listing process, click on the button below
 
Add a business
 

Other Pages about Centre-Piedmont-Cherokee County Regional Airport

Update a link
 
Copyright © AirNav, LLC. All rights reserved. Privacy Policy  Contact